Time;durP1;ratioP1;P1;durP2;ratioP2;P2;SDS_P1;SDS_P2;PMS_P1;PMS_P2;Temp;Humidity;BMP_temperature;BMP_pressure;BME280_temperature;BME280_humidity;BME280_pressure;Samples;Min_cycle;Max_cycle;Signal;HPM_P1;HPM_P2
2023/02/08 00:00:14;;;;;;;37.00;22.50;;;;;;;-0.85;64.96;102999.27;125727;1301;115383;-70
2023/02/08 00:08:41;;;;;;;42.80;24.40;;;;;;;-0.83;64.65;103001.98;125864;1297;636095;-72
2023/02/08 00:12:43;;;;;;;46.30;26.00;;;;;;;-0.87;65.24;103011.85;127513;1281;129062;-71
2023/02/08 00:16:47;;;;;;;48.00;25.70;;;;;;;-0.84;64.81;103012.14;126085;1295;115359;-71
2023/02/08 00:20:49;;;;;;;45.60;25.90;;;;;;;-0.84;65.32;103017.56;121542;1304;5424227;-70
2023/02/08 00:29:19;;;;;;;54.30;29.20;;;;;;;-0.81;64.91;103016.13;125680;1301;638849;-71
2023/02/08 00:37:26;;;;;;;49.30;27.40;;;;;;;-0.72;65.44;103033.11;126195;1315;116519;-71
2023/02/08 00:41:27;;;;;;;51.60;25.90;;;;;;;-0.71;65.46;103031.41;121784;1302;5419156;-72
2023/02/08 00:45:22;;;;;;;47.90;26.70;;;;;;;-0.73;65.47;103033.77;125437;1323;114933;-70
2023/02/08 00:49:23;;;;;;;46.00;25.90;;;;;;;-0.79;65.14;103024.60;124680;1329;114799;-70
2023/02/08 00:53:25;;;;;;;;;;;;;;;;;;;;;
2023/02/08 00:57:50;;;;;;;46.90;28.10;;;;;;;-0.85;65.62;103022.95;126227;1293;639054;-71
2023/02/08 01:01:52;;;;;;;47.40;25.90;;;;;;;-0.88;65.38;103023.33;127849;1277;128685;-69
2023/02/08 01:05:52;;;;;;;45.10;25.40;;;;;;;-0.93;65.48;103018.27;127014;1300;115503;-69
2023/02/08 01:09:54;;;;;;;38.40;22.90;;;;;;;-0.97;65.15;103022.63;122657;1292;5510314;-70
2023/02/08 01:14:20;;;;;;;40.60;22.40;;;;;;;-1.02;65.12;103018.89;125561;1318;114920;-71
2023/02/08 01:17:56;;;;;;;38.00;19.90;;;;;;;-1.06;65.07;103023.65;124929;1326;114867;-71
2023/02/08 01:26:03;;;;;;;;;;;;;;;;;;;;;
2023/02/08 01:30:07;;;;;;;34.50;20.40;;;;;;;-1.09;64.98;103012.65;128984;1266;128757;-69
2023/02/08 01:34:13;;;;;;;30.50;17.30;;;;;;;-1.07;65.05;103004.83;128843;1269;115212;-72
2023/02/08 01:38:16;;;;;;;29.50;16.60;;;;;;;-1.05;65.32;103005.26;123458;1286;5760836;-65
2023/02/08 01:42:18;;;;;;;25.30;14.20;;;;;;;-1.05;64.67;102996.33;126309;1292;115369;-71
2023/02/08 01:46:19;;;;;;;26.20;14.80;;;;;;;-1.04;64.81;103004.25;125175;1323;115032;-70
2023/02/08 01:50:18;;;;;;;;;;;;;;;;;;;;;
2023/02/08 01:58:56;;;;;;;23.70;14.80;;;;;;;-0.96;65.05;103007.77;125581;1300;637784;-69
2023/02/08 02:02:46;;;;;;;29.70;16.90;;;;;;;-0.95;65.11;103001.48;127492;1294;129041;-71
2023/02/08 02:06:42;;;;;;;;;;;;;;;;;;;;;
2023/02/08 02:10:45;;;;;;;27.40;15.70;;;;;;;-0.93;65.04;103000.88;122538;1295;5421265;-71
2023/02/08 02:14:43;;;;;;;23.40;13.60;;;;;;;-0.94;64.61;102996.83;126468;1310;114841;-70
2023/02/08 02:18:44;;;;;;;21.30;13.00;;;;;;;-0.95;65.11;102990.44;125973;1314;114837;-70
2023/02/08 02:26:59;;;;;;;21.00;12.30;;;;;;;-0.96;64.32;102983.73;124957;1308;115458;-70
2023/02/08 02:31:01;;;;;;;;;;;;;;;;;;;;;
2023/02/08 02:35:04;;;;;;;;;;;;;;;;;;;;;
2023/02/08 02:47:34;;;;;;;;;;;;;;;;;;;;;
2023/02/08 02:51:59;;;;;;;;;;;;;;;;;;;;;
2023/02/08 02:59:56;;;;;;;21.40;13.00;;;;;;;-1.00;64.09;102983.92;126224;1310;114958;-71
2023/02/08 03:03:57;;;;;;;20.80;12.40;;;;;;;-0.99;64.14;102979.39;125962;1315;129719;-71
2023/02/08 03:08:29;;;;;;;21.00;11.90;;;;;;;-0.96;64.45;102981.83;125549;1306;115493;-70
2023/02/08 03:12:33;;;;;;;23.50;12.30;;;;;;;-0.97;64.02;102982.14;125395;1304;114954;-72
2023/02/08 03:16:41;;;;;;;22.70;13.10;;;;;;;-0.96;64.57;102983.02;124784;1310;114978;-70
2023/02/08 03:20:41;;;;;;;22.00;12.60;;;;;;;-0.93;64.53;102984.54;124721;1314;114910;-71
2023/02/08 03:24:40;;;;;;;22.40;12.30;;;;;;;-0.94;64.49;102986.08;124673;1311;129710;-71
2023/02/08 03:28:46;;;;;;;22.80;12.60;;;;;;;-0.96;64.51;102987.05;124791;1307;115469;-73
2023/02/08 03:32:57;;;;;;;25.10;13.70;;;;;;;-0.92;64.53;102997.41;124888;1323;114837;-69
2023/02/08 03:37:02;;;;;;;25.50;14.60;;;;;;;-0.89;65.10;102999.25;125474;1315;114958;-70
2023/02/08 03:41:15;;;;;;;25.70;15.00;;;;;;;-0.86;65.02;103004.65;126411;1308;114946;-71
2023/02/08 03:45:21;;;;;;;28.90;14.90;;;;;;;-0.84;64.96;103007.73;126903;1300;127975;-69
2023/02/08 03:49:20;;;;;;;29.00;14.90;;;;;;;-0.81;64.88;103009.08;126601;1309;115236;-71
2023/02/08 03:53:18;;;;;;;;;;;;;;;;;;;;;
2023/02/08 03:56:57;;;;;;;25.20;14.20;;;;;;;-0.75;65.09;103013.36;125494;1319;114913;-70
2023/02/08 04:00:52;;;;;;;26.20;15.00;;;;;;;-0.73;65.32;103015.52;126329;1298;114940;-71
2023/02/08 04:04:32;;;;;;;25.90;14.20;;;;;;;-0.72;65.13;103016.11;125534;1306;129917;-68
2023/02/08 04:08:24;;;;;;;24.50;15.00;;;;;;;-0.70;65.16;103019.85;125683;1318;116435;-69
2023/02/08 04:11:53;;;;;;;26.60;14.00;;;;;;;-0.69;64.98;103022.73;125240;1324;114973;-70
2023/02/08 04:15:26;;;;;;;29.30;15.20;;;;;;;-0.68;64.80;103018.91;124251;1319;115005;-71
2023/02/08 04:19:16;;;;;;;;;;;;;;;;;;;;;
2023/02/08 04:23:01;;;;;;;26.10;14.80;;;;;;;-0.68;64.84;103009.79;123519;1322;129830;-69
2023/02/08 04:26:51;;;;;;;28.40;14.90;;;;;;;-0.69;64.66;103013.79;124393;1316;115304;-71
2023/02/08 04:30:13;;;;;;;30.00;15.70;;;;;;;-0.69;64.77;103015.71;124428;1328;114972;-68
2023/02/08 04:34:06;;;;;;;28.10;16.60;;;;;;;-0.69;64.66;103015.54;125173;1318;114885;-70
2023/02/08 04:37:57;;;;;;;;;;;;;;;;;;;;;
2023/02/08 04:41:45;;;;;;;;;;;;;;;;;;;;;
2023/02/08 04:45:31;;;;;;;;;;;;;;;;;;;;;
2023/02/08 04:49:25;;;;;;;33.40;16.80;;;;;;;-0.63;64.60;103018.93;128189;1288;114943;-71
2023/02/08 04:53:27;;;;;;;30.20;16.80;;;;;;;-0.63;64.92;103019.46;127435;1304;114957;-69
2023/02/08 04:57:17;;;;;;;28.40;16.10;;;;;;;-0.63;64.81;103019.32;123134;1291;115003;-66
2023/02/08 05:01:04;;;;;;;34.80;17.90;;;;;;;-0.60;64.81;103022.05;127007;1290;114959;-69
2023/02/08 05:04:24;;;;;;;37.10;16.90;;;;;;;-0.58;64.87;103013.88;126724;1296;114746;-70
2023/02/08 05:08:25;;;;;;;47.00;22.80;;;;;;;-0.57;64.97;103012.89;126777;1296;128883;-71
2023/02/08 05:11:54;;;;;;;78.30;32.00;;;;;;;-0.58;64.88;103010.89;125838;1302;115275;-69
2023/02/08 05:15:49;;;;;;;70.10;30.90;;;;;;;-0.60;64.67;103006.23;125911;1302;115768;-68
2023/02/08 05:19:45;;;;;;;54.60;27.70;;;;;;;-0.69;64.59;102997.30;125042;1308;115352;-68
2023/02/08 05:23:30;;;;;;;36.40;18.30;;;;;;;-0.80;64.68;102997.89;124486;1328;114955;-68
2023/02/08 05:27:17;;;;;;;44.30;23.20;;;;;;;-0.94;64.68;103000.48;125159;1305;128463;-69
2023/02/08 05:31:20;;;;;;;50.30;23.30;;;;;;;-1.10;64.65;103006.31;125005;1316;116123;-68
2023/02/08 05:35:02;;;;;;;;;;;;;;;;;;;;;
2023/02/08 05:38:25;;;;;;;37.10;20.70;;;;;;;-1.46;64.77;103013.70;124750;1326;114889;-68
2023/02/08 05:42:08;;;;;;;38.50;20.70;;;;;;;-1.63;64.54;103015.77;125207;1305;114957;-69
2023/02/08 05:45:35;;;;;;;42.20;21.40;;;;;;;-1.80;64.46;103020.08;125535;1298;128814;-69
2023/02/08 05:49:28;;;;;;;;;;;;;;;;;;;;;
2023/02/08 05:53:09;;;;;;;39.10;21.60;;;;;;;-2.11;65.17;103027.76;125399;1323;115086;-69
2023/02/08 05:56:53;;;;;;;41.70;22.20;;;;;;;-2.25;65.22;103022.92;125572;1295;114892;-68
2023/02/08 06:00:36;;;;;;;43.20;21.40;;;;;;;-2.39;65.23;103030.46;125772;1301;115731;-68
2023/02/08 06:04:09;;;;;;;46.90;22.40;;;;;;;-2.54;65.15;103032.72;125816;1300;128571;-68
2023/02/08 06:08:03;;;;;;;;;;;;;;;;;;;;;
2023/02/08 06:11:41;;;;;;;43.60;22.60;;;;;;;-2.80;65.45;103030.41;125333;1318;114925;-70
2023/02/08 06:15:37;;;;;;;48.40;24.90;;;;;;;-2.92;65.95;103034.02;125931;1313;114748;-68
2023/02/08 06:19:20;;;;;;;;;;;;;;;;;;;;;
2023/02/08 06:23:22;;;;;;;51.90;25.20;;;;;;;-3.15;65.56;103043.30;125686;1302;129874;-67
2023/02/08 06:27:06;;;;;;;;;;;;;;;;;;;;;
2023/02/08 06:30:36;;;;;;;64.90;33.10;;;;;;;-3.35;65.93;103039.31;125700;1319;114995;-69
2023/02/08 06:34:31;;;;;;;;;;;;;;;;;;;;;
2023/02/08 06:38:32;;;;;;;;;;;;;;;;;;;;;
2023/02/08 06:42:35;;;;;;;57.80;27.80;;;;;;;-3.48;67.69;103041.98;125387;1302;129985;-68
2023/02/08 06:46:36;;;;;;;69.80;36.60;;;;;;;-3.52;68.20;103042.31;124190;1332;115164;-64
2023/02/08 06:50:38;;;;;;;64.80;30.30;;;;;;;-3.53;68.06;103047.00;124578;1316;115040;-70
2023/02/08 06:54:30;;;;;;;50.30;24.80;;;;;;;-3.52;68.76;103048.04;123842;1336;114914;-66
2023/02/08 07:03:01;;;;;;;53.80;28.30;;;;;;;-3.44;68.41;103063.86;125720;1299;635969;-70
2023/02/08 07:15:36;;;;;;;63.40;32.60;;;;;;;-3.09;69.08;103076.85;125905;1298;639986;-67
2023/02/08 07:19:38;;;;;;;96.10;42.10;;;;;;;-2.93;69.21;103087.30;128442;1277;128640;-70
2023/02/08 07:23:41;;;;;;;85.20;38.30;;;;;;;-2.75;69.59;103090.63;126984;1303;115337;-68
2023/02/08 07:27:43;;;;;;;83.20;34.60;;;;;;;-2.55;69.85;103088.11;121729;1301;5478940;-67
2023/02/08 07:31:46;;;;;;;66.40;30.60;;;;;;;-2.41;69.50;103091.28;124899;1327;115077;-67
2023/02/08 07:35:47;;;;;;;67.20;30.50;;;;;;;-2.26;69.46;103101.81;124658;1313;114793;-71
2023/02/08 07:43:55;;;;;;;81.30;39.80;;;;;;;-1.98;69.86;103102.44;125618;1304;636271;-70
2023/02/08 07:47:58;;;;;;;66.30;31.10;;;;;;;-1.87;69.46;103108.41;127498;1287;129734;-68
2023/02/08 07:52:00;;;;;;;;;;;;;;;;;;;;;
2023/02/08 07:56:30;;;;;;;73.30;32.90;;;;;;;-1.59;69.52;103115.30;125887;1307;638683;-67
2023/02/08 08:00:32;;;;;;;;;;;;;;;;;;;;;
2023/02/08 08:04:36;;;;;;;65.20;32.80;;;;;;;-1.30;69.42;103123.94;127105;1305;115477;-70
2023/02/08 08:08:35;;;;;;;;;;;;;;;;;;;;;
2023/02/08 08:12:38;;;;;;;65.10;32.20;;;;;;;-1.02;69.68;103120.48;126408;1301;114910;-67
2023/02/08 08:20:50;;;;;;;;;;;;;;;;;;;;;
2023/02/08 08:24:47;;;;;;;68.30;35.20;;;;;;;-0.62;69.24;103121.82;127576;1284;129132;-69
2023/02/08 08:28:40;;;;;;;67.80;34.50;;;;;;;-0.46;69.13;103115.98;127145;1297;114840;-70
2023/02/08 08:33:08;;;;;;;68.60;35.40;;;;;;;-0.36;68.78;103113.63;126305;1295;114962;-69
2023/02/08 08:36:42;;;;;;;;;;;;;;;;;;;;;
2023/02/08 08:49:18;;;;;;;67.90;36.40;;;;;;;0.12;68.51;103109.73;125600;1311;638478;-68
2023/02/08 08:53:21;;;;;;;76.80;37.80;;;;;;;0.30;68.36;103106.55;129056;1274;127839;-70
2023/02/08 08:57:24;;;;;;;74.80;37.90;;;;;;;0.47;68.14;103107.73;128003;1282;115391;-69
2023/02/08 09:01:28;;;;;;;76.60;37.00;;;;;;;0.59;67.79;103112.05;122870;1293;5444502;-68
2023/02/08 09:05:29;;;;;;;104.80;45.70;;;;;;;0.69;67.67;103112.56;126407;1316;115138;-68
2023/02/08 09:13:57;;;;;;;67.40;38.00;;;;;;;0.80;67.26;103111.39;125815;1298;635834;-69
2023/02/08 09:18:03;;;;;;;81.30;39.40;;;;;;;0.87;67.25;103110.77;128682;1275;129163;-66
2023/02/08 09:22:09;;;;;;;71.30;35.40;;;;;;;0.95;67.25;103112.80;127872;1283;115300;-67
2023/02/08 09:26:14;;;;;;;57.00;31.30;;;;;;;1.05;66.89;103113.17;122813;1313;5454597;-68
2023/02/08 09:34:24;;;;;;;62.90;32.20;;;;;;;1.37;67.06;103115.67;126234;1293;636245;-69
2023/02/08 09:38:09;;;;;;;63.30;32.50;;;;;;;1.46;66.65;103118.95;128586;1296;129083;-69
2023/02/08 09:42:19;;;;;;;66.40;34.50;;;;;;;1.50;66.08;103111.17;127169;1287;114943;-68
2023/02/08 09:46:44;;;;;;;68.20;34.20;;;;;;;1.55;66.14;103110.65;127146;1291;116102;-68
2023/02/08 09:51:12;;;;;;;57.10;28.60;;;;;;;1.65;66.19;103110.44;124282;1296;114936;-69
2023/02/08 09:55:16;;;;;;;67.30;34.80;;;;;;;1.68;65.91;103112.64;125993;1314;114988;-67
2023/02/08 09:59:18;;;;;;;61.20;32.40;;;;;;;1.70;66.02;103110.60;125809;1319;115012;-63
2023/02/08 10:03:12;;;;;;;56.60;31.30;;;;;;;1.78;65.94;103110.70;125785;1309;127840;-62
2023/02/08 10:07:04;;;;;;;72.00;31.20;;;;;;;1.86;65.56;103106.52;125282;1307;115301;-61
2023/02/08 10:11:08;;;;;;;53.20;29.50;;;;;;;1.87;65.27;103109.73;124191;1313;114959;-61
2023/02/08 10:15:31;;;;;;;62.90;32.60;;;;;;;1.80;64.99;103106.17;124258;1326;114937;-61
2023/02/08 10:19:15;;;;;;;59.60;30.80;;;;;;;1.80;65.36;103103.70;125562;1299;114968;-60
2023/02/08 10:23:19;;;;;;;45.10;24.50;;;;;;;1.78;64.81;103103.48;125944;1297;127042;-63
2023/02/08 10:27:25;;;;;;;65.70;31.20;;;;;;;1.71;64.70;103097.05;126563;1309;115223;-62
2023/02/08 10:35:58;;;;;;;53.10;28.80;;;;;;;1.66;65.33;103089.14;127111;1300;114855;-60
2023/02/08 10:39:59;;;;;;;57.20;31.50;;;;;;;1.64;64.96;103084.88;126109;1292;115413;-63
2023/02/08 10:44:13;;;;;;;56.80;28.80;;;;;;;1.65;65.41;103083.33;125770;1304;129586;-63
2023/02/08 10:48:26;;;;;;;59.00;31.70;;;;;;;1.63;64.94;103079.76;126436;1293;115473;-62
2023/02/08 10:52:28;;;;;;;59.70;31.10;;;;;;;1.61;65.42;103078.25;126127;1290;114953;-63
2023/02/08 10:56:22;;;;;;;;;;;;;;;;;;;;;
2023/02/08 11:00:09;;;;;;;59.00;30.90;;;;;;;1.65;65.37;103073.44;124320;1314;114972;-63
2023/02/08 11:08:46;;;;;;;65.70;33.50;;;;;;;1.72;65.51;103057.63;126238;1292;637173;-61
2023/02/08 11:12:49;;;;;;;55.50;30.60;;;;;;;1.79;65.45;103053.10;128349;1277;128936;-61
2023/02/08 11:20:37;;;;;;;;;;;;;;;;;;;;;
2023/02/08 11:24:40;;;;;;;;;;;;;;;;;;;;;
2023/02/08 11:28:44;;;;;;;63.90;34.20;;;;;;;1.83;65.37;103035.42;125953;1299;114987;-64
2023/02/08 11:32:46;;;;;;;53.20;31.80;;;;;;;1.93;65.39;103030.10;125240;1315;114897;-64
2023/02/08 11:36:48;;;;;;;57.00;31.50;;;;;;;2.04;65.40;103033.59;124569;1329;128393;-65
2023/02/08 11:45:15;;;;;;;66.30;35.50;;;;;;;2.26;65.37;103016.25;126158;1294;638535;-62
2023/02/08 11:49:18;;;;;;;;;;;;;;;;;;;;;
2023/02/08 11:53:15;;;;;;;;;;;;;;;;;;;;;
2023/02/08 11:57:18;;;;;;;;;;;;;;;;;;;;;
2023/02/08 12:01:20;;;;;;;61.30;33.50;;;;;;;2.99;64.91;103015.94;126350;1295;114856;-65
2023/02/08 12:05:02;;;;;;;56.20;33.20;;;;;;;3.12;65.07;103012.02;125435;1302;114940;-62
2023/02/08 12:09:06;;;;;;;63.40;31.20;;;;;;;3.20;64.82;103009.06;124178;1316;114977;-64
2023/02/08 12:13:26;;;;;;;60.70;33.00;;;;;;;3.29;64.83;103008.91;126310;1307;129956;-64
2023/02/08 12:17:40;;;;;;;;;;;;;;;;;;;;;
2023/02/08 12:21:51;;;;;;;63.00;32.80;;;;;;;3.22;64.02;103009.27;124737;1323;114965;-63
2023/02/08 12:25:54;;;;;;;51.20;27.90;;;;;;;3.16;63.91;103005.07;125219;1316;114895;-63
2023/02/08 12:30:04;;;;;;;57.30;30.20;;;;;;;3.07;63.77;103001.30;125984;1299;114871;-63
2023/02/08 12:34:08;;;;;;;59.00;32.70;;;;;;;2.90;63.35;103002.46;126360;1292;129685;-71
2023/02/08 12:42:23;;;;;;;;;;;;;;;;;;;;;
2023/02/08 12:46:25;;;;;;;61.00;33.50;;;;;;;2.58;63.38;103003.39;128660;1278;115023;-67
2023/02/08 12:50:34;;;;;;;64.70;33.80;;;;;;;2.49;63.62;102996.77;128617;1277;114911;-66
2023/02/08 12:58:29;;;;;;;62.00;31.90;;;;;;;2.60;63.77;102990.02;127114;1288;114992;-67
2023/02/08 13:02:33;;;;;;;58.30;34.10;;;;;;;2.60;63.60;102987.73;127075;1289;115002;-66
2023/02/08 13:06:35;;;;;;;63.70;34.30;;;;;;;2.56;63.49;102986.03;126378;1299;114774;-66
2023/02/08 13:10:35;;;;;;;;;;;;;;;;;;;;;
2023/02/08 13:14:43;;;;;;;57.20;32.50;;;;;;;2.47;63.31;102981.55;125582;1301;129821;-66
2023/02/08 13:18:54;;;;;;;63.10;33.50;;;;;;;2.40;62.91;102978.20;125885;1298;115409;-67
2023/02/08 13:22:55;;;;;;;60.40;34.30;;;;;;;2.36;63.22;102973.34;125655;1301;114962;-65
2023/02/08 13:26:59;;;;;;;67.90;34.70;;;;;;;2.29;63.20;102973.67;125220;1328;114930;-66
2023/02/08 13:30:53;;;;;;;;;;;;;;;;;;;;;
2023/02/08 13:34:53;;;;;;;;;;;;;;;;;;;;;
2023/02/08 13:38:59;;;;;;;67.90;36.60;;;;;;;1.98;63.77;102970.31;124203;1313;115024;-66
2023/02/08 13:43:00;;;;;;;64.10;33.40;;;;;;;2.00;63.78;102965.77;124666;1299;115002;-67
2023/02/08 13:47:02;;;;;;;58.00;31.30;;;;;;;2.02;63.39;102964.41;125898;1319;115051;-66
2023/02/08 14:03:33;;;;;;;;;;;;;;;;;;;;;
2023/02/08 14:11:54;;;;;;;63.70;34.00;;;;;;;2.33;63.21;102965.30;125295;1320;115067;-67
2023/02/08 14:15:57;;;;;;;60.00;32.70;;;;;;;2.35;62.94;102956.38;125629;1304;129799;-66
2023/02/08 14:23:51;;;;;;;;;;;;;;;;;;;;;
2023/02/08 14:28:04;;;;;;;;;;;;;;;;;;;;;
2023/02/08 14:32:05;;;;;;;59.40;33.70;;;;;;;1.95;62.32;102942.73;126180;1297;115041;-66
2023/02/08 14:36:23;;;;;;;61.40;32.00;;;;;;;1.80;62.75;102942.48;126381;1288;130698;-67
2023/02/08 14:40:31;;;;;;;71.80;34.50;;;;;;;1.69;62.84;102939.31;126470;1290;115590;-66
2023/02/08 14:44:28;;;;;;;61.90;34.50;;;;;;;1.57;62.81;102935.96;125759;1311;114945;-66
2023/02/08 14:48:23;;;;;;;66.70;33.40;;;;;;;1.47;63.03;102928.46;125146;1302;114867;-67
2023/02/08 14:52:25;;;;;;;65.40;34.30;;;;;;;1.33;63.00;102922.76;125135;1307;115029;-66
2023/02/08 14:56:24;;;;;;;68.50;36.70;;;;;;;1.19;63.25;102921.96;124960;1310;129807;-66
2023/02/08 15:00:17;;;;;;;;;;;;;;;;;;;;;
2023/02/08 15:08:33;;;;;;;67.30;36.50;;;;;;;0.84;63.86;102932.63;124752;1328;114772;-66
2023/02/08 15:12:41;;;;;;;67.60;36.50;;;;;;;0.73;63.80;102937.88;125021;1325;114840;-65
2023/02/08 15:16:34;;;;;;;;;;;;;;;;;;;;;
2023/02/08 15:20:37;;;;;;;77.30;38.70;;;;;;;0.48;64.23;102937.21;125397;1305;115279;-66
2023/02/08 15:24:41;;;;;;;70.50;39.00;;;;;;;0.36;64.07;102934.14;125697;1317;114955;-66
2023/02/08 15:28:54;;;;;;;78.10;41.00;;;;;;;0.26;64.14;102937.30;125772;1317;114983;-67
2023/02/08 15:32:56;;;;;;;79.40;38.00;;;;;;;0.14;64.57;102938.12;125916;1305;114918;-65
2023/02/08 15:37:03;;;;;;;79.30;40.30;;;;;;;0.01;64.55;102937.98;125231;1305;129913;-66
2023/02/08 15:45:31;;;;;;;78.60;40.60;;;;;;;-0.22;65.08;102937.84;126042;1295;635572;-68
2023/02/08 15:49:26;;;;;;;;;;;;;;;;;;;;;
2023/02/08 15:53:28;;;;;;;;;;;;;;;;;;;;;
2023/02/08 15:57:30;;;;;;;86.80;42.40;;;;;;;-0.62;65.32;102946.84;122417;1296;5436222;-69
2023/02/08 16:09:56;;;;;;;;;;;;;;;;;;;;;
2023/02/08 16:18:09;;;;;;;95.90;45.40;;;;;;;-1.27;66.37;102933.52;126742;1295;115311;-68
2023/02/08 16:22:19;;;;;;;98.30;47.00;;;;;;;-1.41;65.98;102935.41;122497;1298;5440921;-68
2023/02/08 16:26:19;;;;;;;109.40;50.70;;;;;;;-1.52;66.46;102935.77;125254;1310;114893;-69
2023/02/08 16:29:37;;;;;;;123.60;60.70;;;;;;;-1.64;66.53;102933.17;124849;1326;114896;-68
2023/02/08 16:33:39;;;;;;;101.20;50.90;;;;;;;-1.73;66.91;102936.83;124872;1314;115848;-68
2023/02/08 16:42:06;;;;;;;100.60;49.30;;;;;;;-1.91;67.28;102928.30;125442;1302;636768;-69
2023/02/08 16:46:08;;;;;;;108.80;51.50;;;;;;;-2.04;67.34;102923.02;127333;1288;129077;-67
2023/02/08 16:50:12;;;;;;;105.20;51.40;;;;;;;-2.12;67.67;102924.94;126673;1307;114968;-67
2023/02/08 16:54:05;;;;;;;;;;;;;;;;;;;;;
2023/02/08 17:02:40;;;;;;;97.70;48.90;;;;;;;-2.34;67.78;102916.41;126407;1305;635842;-67
2023/02/08 17:06:45;;;;;;;99.10;49.60;;;;;;;-2.45;68.17;102917.33;127722;1278;128186;-68
2023/02/08 17:10:36;;;;;;;105.60;49.30;;;;;;;-2.52;68.40;102916.62;126863;1297;114797;-67
2023/02/08 17:14:40;;;;;;;105.80;53.10;;;;;;;-2.60;68.45;102910.30;123094;1290;5385051;-66
2023/02/08 17:18:40;;;;;;;;;;;;;;;;;;;;;
2023/02/08 17:22:40;;;;;;;;;;;;;;;;;;;;;
2023/02/08 17:27:02;;;;;;;133.40;61.80;;;;;;;-2.74;69.34;102904.93;126526;1295;635691;-67
2023/02/08 17:31:07;;;;;;;132.90;62.60;;;;;;;-2.76;69.59;102914.48;128862;1275;128277;-67
2023/02/08 17:35:11;;;;;;;145.70;65.80;;;;;;;-2.78;69.95;102912.47;128629;1271;115058;-66
2023/02/08 17:39:15;;;;;;;153.00;64.80;;;;;;;-2.79;70.18;102910.62;123319;1286;5689963;-67
2023/02/08 17:43:16;;;;;;;150.40;64.50;;;;;;;-2.81;70.56;102914.07;126153;1292;114909;-67
2023/02/08 17:47:10;;;;;;;139.90;62.50;;;;;;;-2.80;70.37;102912.35;125106;1318;115056;-66
2023/02/08 17:55:31;;;;;;;126.00;59.60;;;;;;;-2.76;71.60;102904.66;126204;1308;635896;-66
2023/02/08 17:59:34;;;;;;;137.70;65.80;;;;;;;-2.77;70.74;102902.89;129517;1282;128860;-67
2023/02/08 18:03:36;;;;;;;125.10;53.70;;;;;;;-2.75;71.11;102901.76;129279;1270;115206;-66
2023/02/08 18:07:44;;;;;;;120.40;52.60;;;;;;;-2.73;71.38;102898.34;124132;1282;5426813;-68
2023/02/08 18:11:44;;;;;;;114.20;51.40;;;;;;;-2.71;71.34;102896.14;126702;1292;114893;-66
2023/02/08 18:15:46;;;;;;;;;;;;;;;;;;;;;
2023/02/08 18:19:51;;;;;;;106.60;49.80;;;;;;;-2.69;71.76;102889.94;125444;1321;116717;-67
2023/02/08 18:28:34;;;;;;;120.90;55.20;;;;;;;-2.65;71.60;102875.64;126487;1296;635798;-66
2023/02/08 18:32:21;;;;;;;116.80;54.20;;;;;;;-2.66;71.86;102874.36;129412;1288;128306;-67
2023/02/08 18:36:23;;;;;;;122.00;56.10;;;;;;;-2.65;71.74;102867.06;128272;1297;115437;-68
2023/02/08 18:40:25;;;;;;;119.90;56.50;;;;;;;-2.63;72.14;102866.42;123595;1283;5448988;-68
2023/02/08 18:44:22;;;;;;;131.90;58.60;;;;;;;-2.63;72.07;102866.63;126644;1286;114935;-68
2023/02/08 18:48:12;;;;;;;129.40;58.30;;;;;;;-2.63;72.28;102862.93;126010;1314;116496;-67
2023/02/08 18:52:38;;;;;;;146.70;66.30;;;;;;;-2.63;71.78;102866.11;125672;1303;115054;-66
2023/02/08 18:56:07;;;;;;;;;;;;;;;;;;;;;
2023/02/08 19:04:28;;;;;;;151.60;68.70;;;;;;;-2.62;72.24;102851.46;126356;1303;635898;-68
2023/02/08 19:08:32;;;;;;;152.60;67.10;;;;;;;-2.63;72.47;102856.45;128101;1279;128242;-69
2023/02/08 19:12:18;;;;;;;;;;;;;;;;;;;;;
2023/02/08 19:16:16;;;;;;;148.50;65.00;;;;;;;-2.64;72.29;102848.57;123633;1295;5444974;-68
2023/02/08 19:20:16;;;;;;;145.90;65.00;;;;;;;-2.64;72.27;102849.42;125621;1314;114968;-67
2023/02/08 19:28:32;;;;;;;;;;;;;;;;;;;;;
2023/02/08 19:32:36;;;;;;;143.60;63.80;;;;;;;-2.66;72.19;102862.84;128037;1278;128693;-70
2023/02/08 19:36:12;;;;;;;;;;;;;;;;;;;;;
2023/02/08 19:40:39;;;;;;;147.70;63.00;;;;;;;-2.70;72.35;102878.20;125651;1304;114869;-69
2023/02/08 19:44:14;;;;;;;;;;;;;;;;;;;;;
2023/02/08 19:52:41;;;;;;;139.90;65.90;;;;;;;-2.79;71.86;102872.88;125865;1297;639207;-70
2023/02/08 19:56:30;;;;;;;148.10;65.60;;;;;;;-2.86;72.05;102870.60;127623;1280;128861;-68
2023/02/08 20:00:26;;;;;;;;;;;;;;;;;;;;;
2023/02/08 20:04:04;;;;;;;;;;;;;;;;;;;;;
2023/02/08 20:08:07;;;;;;;146.80;68.50;;;;;;;-3.02;72.39;102852.90;125378;1323;114913;-67
2023/02/08 20:16:32;;;;;;;159.40;70.90;;;;;;;-3.08;72.63;102837.94;126331;1294;636020;-68
2023/02/08 20:20:35;;;;;;;168.30;72.00;;;;;;;-3.13;72.75;102835.77;128384;1272;128982;-68
2023/02/08 20:32:43;;;;;;;183.60;81.70;;;;;;;-3.22;72.36;102843.78;125479;1318;114796;-68
2023/02/08 20:36:47;;;;;;;181.50;81.70;;;;;;;-3.24;73.12;102842.44;124001;1332;114872;-67
2023/02/08 20:40:45;;;;;;;;;;;;;;;;;;;;;
2023/02/08 20:49:06;;;;;;;182.20;84.40;;;;;;;-3.34;72.76;102833.21;126544;1293;636095;-68
2023/02/08 20:53:12;;;;;;;200.80;84.50;;;;;;;-3.41;72.95;102833.75;128154;1294;128356;-67
2023/02/08 20:57:17;;;;;;;208.50;93.40;;;;;;;-3.46;73.20;102832.80;127759;1301;115335;-65
2023/02/08 21:01:18;;;;;;;186.60;82.30;;;;;;;-3.50;73.13;102824.22;122275;1292;5446134;-67
2023/02/08 21:05:18;;;;;;;199.30;82.30;;;;;;;-3.55;73.03;102816.82;124610;1329;114935;-67
2023/02/08 21:09:19;;;;;;;192.80;83.10;;;;;;;-3.59;73.60;102813.14;123539;1334;114957;-66
2023/02/08 21:17:31;;;;;;;199.60;84.10;;;;;;;-3.66;73.56;102816.89;126452;1295;636199;-66
2023/02/08 21:21:34;;;;;;;190.10;82.20;;;;;;;-3.70;73.57;102814.70;128595;1273;128794;-65
2023/02/08 21:24:50;;;;;;;177.90;80.40;;;;;;;-3.73;73.77;102811.19;127330;1305;115055;-66
2023/02/08 21:28:43;;;;;;;186.20;80.90;;;;;;;-3.74;73.85;102809.55;127377;1287;114912;-66
2023/02/08 21:32:15;;;;;;;194.30;86.60;;;;;;;-3.76;73.83;102808.43;126035;1287;117312;-65
2023/02/08 21:36:19;;;;;;;207.00;89.70;;;;;;;-3.78;74.29;102802.21;127642;1303;114820;-68
2023/02/08 21:40:21;;;;;;;190.40;84.70;;;;;;;-3.80;74.45;102797.77;126753;1295;128766;-67
2023/02/08 21:43:54;;;;;;;260.10;115.60;;;;;;;-3.82;74.53;102794.70;125404;1301;115431;-67
2023/02/08 21:47:18;;;;;;;205.50;85.00;;;;;;;-3.84;74.38;102797.61;125460;1320;114840;-68
2023/02/08 21:58:14;;;;;;;211.40;88.50;;;;;;;-3.89;74.45;102793.83;125485;1295;129729;-70
2023/02/08 22:02:05;;;;;;;;;;;;;;;;;;;;;
2023/02/08 22:05:55;;;;;;;;;;;;;;;;;;;;;
2023/02/08 22:09:58;;;;;;;225.50;94.90;;;;;;;-3.95;74.28;102784.27;125834;1303;114983;-69
2023/02/08 22:17:30;;;;;;;;;;;;;;;;;;;;;
2023/02/08 22:21:27;;;;;;;193.40;81.90;;;;;;;-3.98;75.31;102774.58;129541;1282;128902;-66
2023/02/08 22:24:59;;;;;;;;;;;;;;;;;;;;;
2023/02/08 22:29:03;;;;;;;195.20;84.80;;;;;;;-3.97;74.75;102766.73;128839;1272;114824;-69
2023/02/08 22:33:06;;;;;;;186.50;81.30;;;;;;;-3.97;74.72;102762.73;124646;1287;5436230;-69
2023/02/08 22:37:08;;;;;;;188.30;79.90;;;;;;;-3.98;75.15;102757.60;127659;1281;114925;-71
2023/02/08 22:40:58;;;;;;;185.00;79.50;;;;;;;-3.98;75.31;102758.64;126106;1295;115044;-71
2023/02/08 22:45:00;;;;;;;173.50;75.40;;;;;;;-3.99;75.03;102756.71;125453;1320;128672;-68
2023/02/08 22:53:29;;;;;;;198.20;83.10;;;;;;;-3.96;74.50;102745.48;126020;1292;638572;-70
2023/02/08 22:57:32;;;;;;;182.70;77.90;;;;;;;-4.00;74.93;102738.50;129613;1263;128714;-71
2023/02/08 23:01:35;;;;;;;180.30;79.40;;;;;;;-3.99;74.79;102730.31;128649;1275;115206;-70
2023/02/08 23:05:36;;;;;;;;;;;;;;;;;;;;;
2023/02/08 23:09:38;;;;;;;186.10;79.30;;;;;;;-4.01;75.01;102717.48;126398;1292;114913;-70
2023/02/08 23:13:37;;;;;;;;;;;;;;;;;;;;;
2023/02/08 23:18:11;;;;;;;205.90;86.40;;;;;;;-3.99;74.90;102711.82;126041;1308;639309;-70
2023/02/08 23:22:16;;;;;;;196.50;84.80;;;;;;;-4.02;74.91;102709.20;127270;1304;128113;-68